Time;durP1;ratioP1;P1;durP2;ratioP2;P2;SDS_P1;SDS_P2;PMS_P1;PMS_P2;Temp;Humidity;BMP_temperature;BMP_pressure;BME280_temperature;BME280_humidity;BME280_pressure;Samples;Min_cycle;Max_cycle;Signal;HPM_P1;HPM_P2
2021/12/23 00:01:00;;;;;;;;;;;10.20;99.90;;;;;;5054292;28;19999;-75
2021/12/23 00:03:26;;;;;;;;;;;10.30;99.90;;;;;;5054850;28;19904;-75
2021/12/23 00:05:53;;;;;;;;;;;10.30;99.90;;;;;;5053092;28;19904;-75
2021/12/23 00:08:20;;;;;;;;;;;10.30;99.90;;;;;;5054305;28;19911;-75
2021/12/23 00:10:45;;;;;;;;;;;10.30;99.90;;;;;;5054665;28;19913;-74
2021/12/23 00:13:11;;;;;;;;;;;10.30;99.90;;;;;;5053978;28;19917;-75
2021/12/23 00:15:49;;;;;;;;;;;10.30;99.90;;;;;;5054742;28;19905;-74
2021/12/23 00:19:03;;;;;;;;;;;10.30;99.90;;;;;;5054037;28;19901;-75
2021/12/23 00:23:53;;;;;;;;;;;10.30;99.90;;;;;;5054473;28;19996;-75
2021/12/23 00:26:19;;;;;;;;;;;10.30;99.90;;;;;;5053807;28;20015;-75
2021/12/23 00:28:44;;;;;;;;;;;10.20;99.90;;;;;;5054180;28;20398;-75
2021/12/23 00:31:10;;;;;;;;;;;10.30;99.90;;;;;;5053712;28;19913;-75
2021/12/23 00:33:37;;;;;;;;;;;10.30;99.90;;;;;;5054307;28;20359;-75
2021/12/23 00:36:04;;;;;;;;;;;10.30;99.90;;;;;;5053433;28;19909;-75
2021/12/23 00:38:34;;;;;;;;;;;10.30;99.90;;;;;;5053685;28;20314;-75
2021/12/23 00:41:02;;;;;;;;;;;10.30;99.90;;;;;;5053799;28;19904;-75
2021/12/23 00:43:29;;;;;;;;;;;10.30;99.90;;;;;;5054367;28;19951;-73
2021/12/23 00:45:54;;;;;;;;;;;10.30;99.90;;;;;;5054318;28;19992;-75
2021/12/23 00:48:20;;;;;;;;;;;10.40;99.90;;;;;;5053965;28;20347;-74
2021/12/23 00:50:46;;;;;;;;;;;10.30;99.90;;;;;;5054034;28;19912;-74
2021/12/23 00:53:17;;;;;;;;;;;10.30;99.90;;;;;;5053063;28;19905;-74
2021/12/23 00:55:43;;;;;;;;;;;10.40;99.90;;;;;;5052097;28;20378;-74
2021/12/23 00:58:09;;;;;;;;;;;10.40;99.90;;;;;;5053445;28;19908;-74
2021/12/23 01:00:34;;;;;;;;;;;10.40;99.90;;;;;;5054085;28;19952;-74
2021/12/23 01:03:01;;;;;;;;;;;10.40;99.90;;;;;;5053296;28;19912;-75
2021/12/23 01:05:27;;;;;;;;;;;10.50;99.90;;;;;;5053910;28;19905;-74
2021/12/23 01:07:52;;;;;;;;;;;10.50;99.90;;;;;;5053982;28;20421;-74
2021/12/23 01:10:18;;;;;;;;;;;10.60;99.90;;;;;;5053202;28;19912;-74
2021/12/23 01:12:54;;;;;;;;;;;10.50;99.90;;;;;;5053387;28;19987;-74
2021/12/23 01:18:00;;;;;;;;;;;10.50;99.90;;;;;;5053889;28;19905;-74
2021/12/23 01:20:29;;;;;;;;;;;10.50;99.90;;;;;;5053769;28;19904;-74
2021/12/23 01:22:57;;;;;;;;;;;10.60;99.90;;;;;;5053393;28;19911;-74
2021/12/23 01:25:23;;;;;;;;;;;10.60;99.90;;;;;;5053535;28;19909;-74
2021/12/23 01:27:49;;;;;;;;;;;10.60;99.90;;;;;;5053162;28;19955;-74
2021/12/23 01:30:17;;;;;;;;;;;10.60;99.90;;;;;;5052915;28;19919;-74
2021/12/23 01:32:43;;;;;;;;;;;10.60;99.90;;;;;;5053431;28;19995;-74
2021/12/23 01:35:09;;;;;;;;;;;10.60;99.90;;;;;;5052878;28;19966;-74
2021/12/23 01:37:35;;;;;;;;;;;10.60;99.90;;;;;;5053051;28;20371;-74
2021/12/23 01:40:00;;;;;;;;;;;10.60;99.90;;;;;;5052997;28;19936;-75
2021/12/23 01:42:26;;;;;;;;;;;10.60;99.90;;;;;;5053039;28;19908;-74
2021/12/23 01:44:52;;;;;;;;;;;10.60;99.90;;;;;;5053398;28;19904;-74
2021/12/23 01:47:17;;;;;;;;;;;10.60;99.90;;;;;;5052432;28;20363;-74
2021/12/23 01:49:43;;;;;;;;;;;10.60;99.90;;;;;;5053151;28;19927;-74
2021/12/23 01:52:08;;;;;;;;;;;10.60;99.90;;;;;;5052529;28;20424;-75
2021/12/23 01:54:34;;;;;;;;;;;10.50;99.90;;;;;;5052891;28;19905;-74
2021/12/23 01:57:00;;;;;;;;;;;10.50;99.90;;;;;;5052564;28;19911;-74
2021/12/23 01:59:25;;;;;;;;;;;10.60;99.90;;;;;;5052429;28;19905;-74
2021/12/23 02:01:51;;;;;;;;;;;10.60;99.90;;;;;;5052965;28;19951;-74
2021/12/23 02:04:16;;;;;;;;;;;10.60;99.90;;;;;;5052278;28;19905;-74
2021/12/23 02:06:42;;;;;;;;;;;10.60;99.90;;;;;;5052605;28;20405;-74
2021/12/23 02:09:08;;;;;;;;;;;10.60;99.90;;;;;;5051938;28;19909;-74
2021/12/23 02:11:34;;;;;;;;;;;10.70;99.90;;;;;;5052837;28;19944;-73
2021/12/23 02:13:59;;;;;;;;;;;10.60;99.90;;;;;;5052641;28;20279;-74
2021/12/23 02:16:25;;;;;;;;;;;10.60;99.90;;;;;;5067327;28;19904;-74
2021/12/23 02:18:50;;;;;;;;;;;10.50;99.90;;;;;;5052833;28;20344;-73
2021/12/23 02:21:16;;;;;;;;;;;10.60;99.90;;;;;;5051982;28;19936;-74
2021/12/23 02:23:41;;;;;;;;;;;10.60;99.90;;;;;;5052210;28;20375;-74
2021/12/23 02:26:07;;;;;;;;;;;10.50;99.90;;;;;;5052011;28;19908;-74
2021/12/23 02:28:33;;;;;;;;;;;10.50;99.90;;;;;;5053029;28;20236;-74
2021/12/23 02:30:59;;;;;;;;;;;10.50;99.90;;;;;;5052532;28;19913;-74
2021/12/23 02:33:25;;;;;;;;;;;10.50;99.90;;;;;;5052005;28;19908;-74
2021/12/23 02:35:52;;;;;;;;;;;10.50;99.90;;;;;;5052590;28;19905;-74
2021/12/23 02:38:17;;;;;;;;;;;10.50;99.90;;;;;;5052066;28;19915;-74
2021/12/23 02:40:43;;;;;;;;;;;10.50;99.90;;;;;;5052491;28;19904;-73
2021/12/23 02:43:14;;;;;;;;;;;10.50;99.90;;;;;;5051892;28;19905;-74
2021/12/23 02:45:41;;;;;;;;;;;10.50;99.90;;;;;;5052428;28;19905;-73
2021/12/23 02:48:11;;;;;;;;;;;10.50;99.90;;;;;;5051834;28;19959;-74
2021/12/23 02:50:37;;;;;;;;;;;10.50;99.90;;;;;;5052305;28;19916;-73
2021/12/23 02:53:02;;;;;;;;;;;10.50;99.90;;;;;;5051059;28;20050;-73
2021/12/23 02:55:28;;;;;;;;;;;10.50;99.90;;;;;;5052166;28;19912;-73
2021/12/23 02:57:53;;;;;;;;;;;10.50;99.90;;;;;;5052418;28;19905;-74
2021/12/23 03:00:21;;;;;;;;;;;10.50;99.90;;;;;;5051479;28;19909;-74
2021/12/23 03:02:47;;;;;;;;;;;10.60;99.90;;;;;;5052326;28;19904;-74
2021/12/23 03:05:12;;;;;;;;;;;10.60;99.90;;;;;;5051292;28;19912;-74
2021/12/23 03:07:38;;;;;;;;;;;10.60;99.90;;;;;;5052057;28;19940;-73
2021/12/23 03:10:06;;;;;;;;;;;10.60;99.90;;;;;;5052123;28;19972;-73
2021/12/23 03:12:31;;;;;;;;;;;10.60;99.90;;;;;;5051780;28;19931;-73
2021/12/23 03:14:58;;;;;;;;;;;10.60;99.90;;;;;;5056464;28;20007;-73
2021/12/23 03:17:24;;;;;;;;;;;10.70;99.90;;;;;;5052598;28;19912;-73
2021/12/23 03:19:49;;;;;;;;;;;10.60;99.90;;;;;;5056085;28;19905;-73
2021/12/23 03:22:15;;;;;;;;;;;10.60;99.90;;;;;;5055412;28;19996;-73
2021/12/23 03:24:40;;;;;;;;;;;10.60;99.90;;;;;;5055706;28;19909;-73
2021/12/23 03:27:06;;;;;;;;;;;10.60;99.90;;;;;;5055681;28;19904;-73
2021/12/23 03:29:32;;;;;;;;;;;10.60;99.90;;;;;;5055025;28;19912;-73
2021/12/23 03:31:57;;;;;;;;;;;10.60;99.90;;;;;;5055948;28;20383;-73
2021/12/23 03:34:23;;;;;;;;;;;10.70;99.90;;;;;;5055413;28;19906;-73
2021/12/23 03:36:49;;;;;;;;;;;10.80;99.90;;;;;;5056019;28;19904;-73
2021/12/23 03:39:14;;;;;;;;;;;10.80;99.90;;;;;;5055037;28;19904;-74
2021/12/23 03:41:40;;;;;;;;;;;10.70;99.90;;;;;;5055786;28;19904;-73
2021/12/23 03:44:06;;;;;;;;;;;10.80;99.90;;;;;;5055734;28;19908;-75
2021/12/23 03:46:31;;;;;;;;;;;10.70;99.90;;;;;;5054798;28;19905;-73
2021/12/23 03:48:57;;;;;;;;;;;10.70;99.90;;;;;;5055270;28;19909;-73
2021/12/23 03:51:22;;;;;;;;;;;10.80;99.90;;;;;;5054828;28;19913;-73
2021/12/23 03:53:48;;;;;;;;;;;10.80;99.90;;;;;;5055911;28;19905;-73
2021/12/23 03:56:14;;;;;;;;;;;10.80;99.90;;;;;;5054484;28;20252;-76
2021/12/23 03:58:40;;;;;;;;;;;10.80;99.90;;;;;;5055332;28;20352;-73
2021/12/23 04:01:06;;;;;;;;;;;10.80;99.90;;;;;;5070683;28;19912;-74
2021/12/23 04:03:32;;;;;;;;;;;10.90;99.90;;;;;;5054749;28;19926;-73
2021/12/23 04:05:57;;;;;;;;;;;10.90;99.90;;;;;;5055568;28;20007;-73
2021/12/23 04:08:23;;;;;;;;;;;10.90;99.90;;;;;;5054265;28;19951;-73
2021/12/23 04:10:48;;;;;;;;;;;10.90;99.90;;;;;;5054659;28;19920;-74
2021/12/23 04:13:14;;;;;;;;;;;10.90;99.90;;;;;;5054562;28;19971;-74
2021/12/23 04:15:40;;;;;;;;;;;10.90;99.90;;;;;;5055214;28;19905;-74
2021/12/23 04:18:05;;;;;;;;;;;10.90;99.90;;;;;;5055020;28;20325;-73
2021/12/23 04:20:35;;;;;;;;;;;11.00;99.90;;;;;;5054216;28;19901;-73
2021/12/23 04:23:01;;;;;;;;;;;11.10;99.90;;;;;;5055213;28;19905;-74
2021/12/23 04:25:27;;;;;;;;;;;11.20;99.90;;;;;;5052866;28;19912;-74
2021/12/23 04:27:54;;;;;;;;;;;11.30;99.90;;;;;;5054339;28;19999;-74
2021/12/23 04:30:21;;;;;;;;;;;11.50;99.90;;;;;;5053673;28;19916;-74
2021/12/23 04:32:46;;;;;;;;;;;11.50;99.90;;;;;;5054614;28;19950;-74
2021/12/23 04:35:12;;;;;;;;;;;11.50;99.90;;;;;;5054396;28;20003;-74
2021/12/23 04:37:38;;;;;;;;;;;11.60;99.90;;;;;;5054373;28;20387;-74
2021/12/23 04:40:06;;;;;;;;;;;11.60;99.90;;;;;;5054351;28;19904;-74
2021/12/23 04:42:32;;;;;;;;;;;11.60;99.90;;;;;;5053865;28;20339;-74
2021/12/23 04:44:58;;;;;;;;;;;11.70;99.90;;;;;;5054560;28;20006;-74
2021/12/23 04:47:23;;;;;;;;;;;11.70;99.90;;;;;;5053845;28;20298;-74
2021/12/23 04:49:49;;;;;;;;;;;11.70;99.90;;;;;;5054388;28;19916;-74
2021/12/23 04:52:14;;;;;;;;;;;11.70;99.90;;;;;;5056577;28;19905;-75
2021/12/23 04:54:40;;;;;;;;;;;11.80;99.90;;;;;;5070562;28;19904;-72
2021/12/23 04:57:06;;;;;;;;;;;11.80;99.90;;;;;;5071575;28;19911;-73
2021/12/23 04:59:32;;;;;;;;;;;11.90;99.90;;;;;;5053697;28;19912;-73
2021/12/23 05:01:58;;;;;;;;;;;11.90;99.90;;;;;;5054205;28;19909;-74
2021/12/23 05:04:23;;;;;;;;;;;11.90;99.90;;;;;;5053322;28;19904;-74
2021/12/23 05:06:49;;;;;;;;;;;11.90;99.90;;;;;;5053818;28;20363;-74
2021/12/23 05:09:14;;;;;;;;;;;11.90;99.90;;;;;;5053697;28;19951;-74
2021/12/23 05:11:40;;;;;;;;;;;11.90;99.90;;;;;;5053152;28;19905;-74
2021/12/23 05:14:06;;;;;;;;;;;11.80;99.90;;;;;;5054171;28;20372;-74
2021/12/23 05:16:31;;;;;;;;;;;11.80;99.90;;;;;;5053226;28;19944;-74
2021/12/23 05:18:57;;;;;;;;;;;11.80;99.90;;;;;;5053935;28;19963;-74
2021/12/23 05:21:22;;;;;;;;;;;11.80;99.90;;;;;;5052850;28;19904;-74
2021/12/23 05:23:48;;;;;;;;;;;11.70;99.90;;;;;;5053820;28;19991;-74
2021/12/23 05:26:13;;;;;;;;;;;11.70;99.90;;;;;;5053762;28;19905;-74
2021/12/23 05:28:39;;;;;;;;;;;11.60;99.90;;;;;;5053166;28;19905;-74
2021/12/23 05:31:05;;;;;;;;;;;11.60;99.90;;;;;;5053158;28;19945;-74
2021/12/23 05:33:31;;;;;;;;;;;11.60;99.90;;;;;;5051437;28;19905;-74
2021/12/23 05:35:57;;;;;;;;;;;11.50;99.90;;;;;;5053690;28;19905;-74
2021/12/23 05:38:23;;;;;;;;;;;11.50;99.90;;;;;;5052576;28;19980;-74
2021/12/23 05:40:49;;;;;;;;;;;11.50;99.90;;;;;;5052334;28;19963;-74
2021/12/23 05:43:14;;;;;;;;;;;11.50;99.90;;;;;;5053484;28;19940;-74
2021/12/23 05:45:40;;;;;;;;;;;11.40;99.90;;;;;;5051447;28;19909;-74
2021/12/23 05:48:06;;;;;;;;;;;11.40;99.90;;;;;;5053528;28;19905;-74
2021/12/23 05:50:31;;;;;;;;;;;11.40;99.90;;;;;;5052275;28;20007;-74
2021/12/23 05:52:57;;;;;;;;;;;11.40;99.90;;;;;;5053288;28;19923;-74
2021/12/23 05:55:23;;;;;;;;;;;11.40;99.90;;;;;;5052876;28;19905;-74
2021/12/23 05:57:48;;;;;;;;;;;11.40;99.90;;;;;;5052998;28;19988;-73
2021/12/23 06:00:20;;;;;;;;;;;11.40;99.90;;;;;;5053062;28;20347;-73
2021/12/23 06:02:46;;;;;;;;;;;11.30;99.90;;;;;;5053536;28;19930;-74
2021/12/23 06:05:12;;;;;;;;;;;11.30;99.90;;;;;;5051567;28;19912;-73
2021/12/23 06:07:38;;;;;;;;;;;11.40;99.90;;;;;;5052041;28;20481;-74
2021/12/23 06:10:04;;;;;;;;;;;11.40;99.90;;;;;;5052805;28;19919;-74
2021/12/23 06:12:29;;;;;;;;;;;11.30;99.90;;;;;;5051932;28;20355;-74
2021/12/23 06:14:55;;;;;;;;;;;11.30;99.90;;;;;;5068393;28;19915;-73
2021/12/23 06:17:20;;;;;;;;;;;11.30;99.90;;;;;;5051072;28;19940;-74
2021/12/23 06:19:46;;;;;;;;;;;11.30;99.90;;;;;;5052721;28;19904;-73
2021/12/23 06:22:13;;;;;;;;;;;11.30;99.90;;;;;;5052855;28;19904;-73
2021/12/23 06:24:39;;;;;;;;;;;11.30;99.90;;;;;;5052038;28;19901;-74
2021/12/23 06:27:05;;;;;;;;;;;11.30;99.90;;;;;;5051353;28;19909;-73
2021/12/23 06:29:31;;;;;;;;;;;11.30;99.90;;;;;;5053259;28;19912;-74
2021/12/23 06:31:56;;;;;;;;;;;11.30;99.90;;;;;;5064354;28;19905;-74
2021/12/23 06:34:22;;;;;;;;;;;11.30;99.90;;;;;;5055934;28;19904;-74
2021/12/23 06:36:47;;;;;;;;;;;11.30;99.90;;;;;;5067774;28;19909;-74
2021/12/23 06:39:13;;;;;;;;;;;11.30;99.90;;;;;;5052615;28;20273;-73
2021/12/23 06:41:39;;;;;;;;;;;11.30;99.90;;;;;;5051979;28;19905;-74
2021/12/23 06:44:05;;;;;;;;;;;11.30;99.90;;;;;;5052353;28;19959;-73
2021/12/23 06:46:30;;;;;;;;;;;11.30;99.90;;;;;;5051601;28;19908;-73
2021/12/23 06:48:56;;;;;;;;;;;11.40;99.90;;;;;;5052474;28;20358;-74
2021/12/23 06:51:21;;;;;;;;;;;11.40;99.90;;;;;;5052742;28;19913;-74
2021/12/23 06:53:47;;;;;;;;;;;11.40;99.90;;;;;;5054976;28;19909;-74
2021/12/23 06:56:17;;;;;;;;;;;11.40;99.90;;;;;;5056782;28;19905;-73
2021/12/23 06:58:42;;;;;;;;;;;11.40;99.90;;;;;;5055561;28;20539;-74
2021/12/23 07:01:08;;;;;;;;;;;11.50;99.90;;;;;;5056470;28;19927;-73
2021/12/23 07:04:00;;;;;;;;;;;11.50;99.90;;;;;;5055606;28;19927;-74
2021/12/23 07:06:22;;;;;;;;;;;11.50;99.90;;;;;;5055660;28;20007;-74
2021/12/23 07:08:48;;;;;;;;;;;11.50;99.90;;;;;;5055824;28;19915;-74
2021/12/23 07:11:14;;;;;;;;;;;11.50;99.90;;;;;;5055985;28;19927;-74
2021/12/23 07:13:40;;;;;;;;;;;11.50;99.90;;;;;;5055178;28;19916;-74
2021/12/23 07:16:05;;;;;;;;;;;11.50;99.90;;;;;;5055995;28;19904;-73
2021/12/23 07:18:31;;;;;;;;;;;11.50;99.90;;;;;;5055130;28;19912;-73
2021/12/23 07:20:57;;;;;;;;;;;11.50;99.90;;;;;;5055696;28;19904;-73
2021/12/23 07:23:22;;;;;;;;;;;11.50;99.90;;;;;;5055557;28;19905;-74
2021/12/23 07:25:48;;;;;;;;;;;11.50;99.90;;;;;;5055475;28;19970;-74
2021/12/23 07:28:13;;;;;;;;;;;11.50;99.90;;;;;;5055878;28;19905;-74
2021/12/23 07:30:39;;;;;;;;;;;11.50;99.90;;;;;;5070809;28;19967;-74
2021/12/23 07:33:05;;;;;;;;;;;11.60;99.90;;;;;;5054665;28;19962;-73
2021/12/23 07:35:30;;;;;;;;;;;11.60;99.90;;;;;;5055081;28;20414;-74
2021/12/23 07:37:59;;;;;;;;;;;11.60;99.90;;;;;;5056131;28;20315;-73
2021/12/23 07:40:25;;;;;;;;;;;11.60;99.90;;;;;;5055257;28;19905;-73
2021/12/23 07:42:56;;;;;;;;;;;11.60;99.90;;;;;;5055102;28;19911;-74
2021/12/23 07:45:22;;;;;;;;;;;11.60;99.90;;;;;;5055666;28;19927;-74
2021/12/23 07:47:48;;;;;;;;;;;11.60;99.90;;;;;;5054705;28;19916;-73
2021/12/23 07:50:13;;;;;;;;;;;11.60;99.90;;;;;;5055394;28;19912;-74
2021/12/23 07:52:39;;;;;;;;;;;11.60;99.90;;;;;;5054948;28;20405;-74
2021/12/23 07:55:05;;;;;;;;;;;11.60;99.90;;;;;;5055422;28;19905;-74
2021/12/23 07:57:31;;;;;;;;;;;11.60;99.90;;;;;;5054797;28;19912;-74
2021/12/23 07:59:58;;;;;;;;;;;11.60;99.90;;;;;;5055552;28;19955;-74
2021/12/23 08:02:24;;;;;;;;;;;11.60;99.90;;;;;;5055008;28;19905;-73
2021/12/23 08:04:49;;;;;;;;;;;11.50;99.90;;;;;;5053578;28;19912;-74
2021/12/23 08:07:15;;;;;;;;;;;11.50;99.90;;;;;;5055488;28;19955;-73
2021/12/23 08:09:40;;;;;;;;;;;11.50;99.90;;;;;;5054595;28;20351;-73
2021/12/23 08:12:07;;;;;;;;;;;11.50;99.90;;;;;;5054555;28;19908;-73
2021/12/23 08:14:33;;;;;;;;;;;11.50;99.90;;;;;;5069586;28;19904;-74
2021/12/23 08:16:58;;;;;;;;;;;11.50;99.90;;;;;;5054992;28;19909;-74
2021/12/23 08:19:24;;;;;;;;;;;11.50;99.90;;;;;;5054710;28;19911;-74
2021/12/23 08:21:49;;;;;;;;;;;11.50;99.90;;;;;;5054254;28;20360;-75
2021/12/23 08:24:15;;;;;;;;;;;11.50;99.90;;;;;;5054783;28;19905;-75
2021/12/23 08:26:44;;;;;;;;;;;11.50;99.90;;;;;;5054034;28;19912;-75
2021/12/23 08:29:09;;;;;;;;;;;11.50;99.90;;;;;;5054285;28;20415;-74
2021/12/23 08:31:35;;;;;;;;;;;11.50;99.90;;;;;;5053703;28;20012;-75
2021/12/23 08:34:01;;;;;;;;;;;11.50;99.90;;;;;;5054543;28;19908;-74
2021/12/23 08:36:26;;;;;;;;;;;11.50;99.90;;;;;;5054343;28;19905;-74
2021/12/23 08:38:52;;;;;;;;;;;11.50;99.90;;;;;;5053702;28;20201;-74
2021/12/23 08:41:18;;;;;;;;;;;11.50;99.90;;;;;;5054113;28;19908;-74
2021/12/23 08:43:44;;;;;;;;;;;11.50;99.90;;;;;;5053680;28;20424;-74
2021/12/23 08:46:10;;;;;;;;;;;11.50;99.90;;;;;;5054391;28;19966;-74
2021/12/23 08:48:35;;;;;;;;;;;11.50;99.90;;;;;;5053550;28;20003;-74
2021/12/23 08:51:01;;;;;;;;;;;11.50;99.90;;;;;;5054245;28;19913;-74
2021/12/23 08:53:26;;;;;;;;;;;11.50;99.90;;;;;;5054194;28;19956;-74
2021/12/23 08:55:52;;;;;;;;;;;11.50;99.90;;;;;;5053672;28;20055;-74
2021/12/23 08:58:18;;;;;;;;;;;11.50;99.90;;;;;;5054208;28;19908;-74
2021/12/23 09:00:43;;;;;;;;;;;11.50;99.90;;;;;;5053152;28;20340;-74
2021/12/23 09:03:09;;;;;;;;;;;11.50;99.90;;;;;;5053714;28;19927;-74
2021/12/23 09:05:36;;;;;;;;;;;11.50;99.90;;;;;;5053324;28;19905;-75
2021/12/23 09:08:02;;;;;;;;;;;11.60;99.90;;;;;;5053882;28;19920;-73
2021/12/23 09:10:27;;;;;;;;;;;11.50;99.90;;;;;;5053690;28;19916;-73
2021/12/23 09:12:53;;;;;;;;;;;11.60;99.90;;;;;;5052734;28;19998;-73
2021/12/23 09:15:20;;;;;;;;;;;11.70;99.90;;;;;;5052993;28;19919;-73
2021/12/23 09:17:46;;;;;;;;;;;11.80;99.90;;;;;;5053485;28;19911;-73
2021/12/23 09:20:13;;;;;;;;;;;11.80;99.90;;;;;;5052428;28;19936;-73
2021/12/23 09:22:40;;;;;;;;;;;11.90;99.90;;;;;;5055621;28;19912;-74
2021/12/23 09:25:11;;;;;;;;;;;11.90;99.90;;;;;;5065244;28;19911;-73
2021/12/23 09:27:44;;;;;;;;;;;12.00;99.90;;;;;;5065197;28;19905;-73
2021/12/23 09:33:12;;;;;;;;;;;12.10;99.90;;;;;;5050640;28;19994;-74
2021/12/23 09:35:39;;;;;;;;;;;12.10;99.90;;;;;;5051526;28;19904;-75
2021/12/23 09:38:04;;;;;;;;;;;12.10;99.90;;;;;;5053209;28;19909;-73
2021/12/23 09:40:32;;;;;;;;;;;12.20;99.90;;;;;;5053205;28;20267;-75
2021/12/23 09:43:03;;;;;;;;;;;12.20;99.90;;;;;;5052818;28;19915;-73
2021/12/23 09:45:28;;;;;;;;;;;12.20;99.90;;;;;;5053268;28;19916;-73
2021/12/23 09:48:02;;;;;;;;;;;12.30;99.90;;;;;;5171789;27;20444;-73
2021/12/23 09:50:29;;;;;;;;;;;12.30;99.90;;;;;;5171960;27;19911;-73
2021/12/23 09:52:56;;;;;;;;;;;12.40;99.90;;;;;;5171230;27;19903;-74
2021/12/23 09:55:24;;;;;;;;;;;12.30;99.90;;;;;;5172259;27;19907;-73
2021/12/23 09:57:50;;;;;;;;;;;12.40;99.90;;;;;;5171324;27;19957;-73
2021/12/23 10:00:20;;;;;;;;;;;12.40;99.90;;;;;;5172107;27;19965;-73
2021/12/23 10:02:46;;;;;;;;;;;12.40;99.90;;;;;;5170711;27;19960;-74
2021/12/23 10:05:15;;;;;;;;;;;12.40;99.90;;;;;;5171873;27;19930;-73
2021/12/23 10:07:41;;;;;;;;;;;12.40;99.90;;;;;;5170718;27;20347;-73
2021/12/23 10:10:16;;;;;;;;;;;12.40;99.90;;;;;;5172052;27;19965;-73
2021/12/23 10:32:13;;;;;;;;;;;12.60;99.90;;;;;;5154270;27;20305;-74
2021/12/23 10:39:39;;;;;;;;;;;12.60;99.90;;;;;;5149039;27;19908;-74
2021/12/23 10:42:11;;;;;;;;;;;12.50;99.90;;;;;;5149328;27;19914;-73
2021/12/23 10:44:37;;;;;;;;;;;12.50;99.90;;;;;;5149404;27;19911;-74
2021/12/23 10:47:03;;;;;;;;;;;12.50;99.90;;;;;;5148816;27;19974;-74
2021/12/23 10:49:33;;;;;;;;;;;12.40;99.90;;;;;;5149057;27;20386;-74
2021/12/23 10:52:17;;;;;;;;;;;12.40;99.90;;;;;;5148695;27;19966;-74
2021/12/23 11:00:09;;;;;;;;;;;12.30;99.90;;;;;;5135308;27;20059;-73
2021/12/23 11:02:37;;;;;;;;;;;12.20;99.90;;;;;;5135478;27;19911;-74
2021/12/23 11:05:18;;;;;;;;;;;12.20;99.90;;;;;;5134828;27;19943;-74
2021/12/23 11:07:55;;;;;;;;;;;12.20;99.90;;;;;;5134500;27;19918;-74
2021/12/23 11:37:39;;;;;;;;;;;12.40;99.90;;;;;;5135145;27;20382;-74
2021/12/23 11:40:11;;;;;;;;;;;12.40;99.90;;;;;;5134280;27;20379;-74
2021/12/23 11:45:20;;;;;;;;;;;12.40;99.90;;;;;;5134902;27;19918;-75
2021/12/23 11:47:46;;;;;;;;;;;12.40;99.90;;;;;;5133845;27;20014;-74
2021/12/23 11:50:19;;;;;;;;;;;12.40;99.90;;;;;;5134602;27;19911;-74
2021/12/23 11:52:45;;;;;;;;;;;12.40;99.90;;;;;;5133608;27;19922;-74
2021/12/23 11:55:10;;;;;;;;;;;12.40;99.90;;;;;;5134622;27;19911;-74
2021/12/23 11:57:39;;;;;;;;;;;12.40;99.90;;;;;;5134139;27;20261;-74
2021/12/23 12:00:49;;;;;;;;;;;12.50;99.90;;;;;;5135069;27;19983;-74
2021/12/23 12:03:01;;;;;;;;;;;12.60;99.90;;;;;;5125420;27;19955;-74
2021/12/23 12:05:27;;;;;;;;;;;12.70;99.90;;;;;;5134653;27;20328;-74
2021/12/23 12:08:06;;;;;;;;;;;12.70;99.90;;;;;;5134039;27;19964;-75
2021/12/23 12:10:33;;;;;;;;;;;12.80;99.90;;;;;;5133443;27;19922;-75
2021/12/23 12:13:03;;;;;;;;;;;12.90;99.90;;;;;;5133639;27;19925;-74
2021/12/23 12:15:37;;;;;;;;;;;12.90;99.90;;;;;;5134151;27;20344;-74
2021/12/23 12:18:04;;;;;;;;;;;12.90;99.90;;;;;;5134059;27;19923;-74
2021/12/23 12:20:36;;;;;;;;;;;12.90;99.90;;;;;;5134527;27;19951;-74
2021/12/23 12:23:12;;;;;;;;;;;12.90;99.90;;;;;;5133694;27;19907;-74
2021/12/23 12:25:47;;;;;;;;;;;12.90;99.90;;;;;;5134604;27;19968;-74
2021/12/23 12:28:17;;;;;;;;;;;12.80;99.90;;;;;;5134417;27;20446;-75
2021/12/23 12:30:48;;;;;;;;;;;12.80;99.90;;;;;;5133576;27;19911;-76
2021/12/23 12:33:13;;;;;;;;;;;12.80;99.90;;;;;;5134786;27;19912;-75
2021/12/23 12:35:40;;;;;;;;;;;12.80;99.90;;;;;;5134210;27;20002;-75
2021/12/23 12:38:12;;;;;;;;;;;12.80;99.90;;;;;;5133523;27;20328;-75
2021/12/23 12:40:53;;;;;;;;;;;12.90;99.90;;;;;;5134124;27;19998;-75
2021/12/23 12:43:31;;;;;;;;;;;13.00;99.90;;;;;;5133779;27;20280;-75
2021/12/23 12:45:57;;;;;;;;;;;13.10;99.90;;;;;;5133078;27;19926;-75
2021/12/23 12:48:42;;;;;;;;;;;13.20;99.90;;;;;;5134296;27;19911;-75
2021/12/23 12:51:18;;;;;;;;;;;13.30;99.90;;;;;;5133685;27;20002;-75
2021/12/23 12:53:55;;;;;;;;;;;13.20;99.90;;;;;;5115275;27;19965;-75
2021/12/23 12:56:26;;;;;;;;;;;13.20;99.90;;;;;;5133966;27;19908;-75
2021/12/23 12:58:53;;;;;;;;;;;13.20;99.90;;;;;;5132991;27;19908;-75
2021/12/23 13:01:37;;;;;;;;;;;13.20;99.90;;;;;;5134079;27;19908;-73
2021/12/23 13:04:05;;;;;;;;;;;13.20;99.90;;;;;;5132963;27;19908;-73
2021/12/23 13:06:38;;;;;;;;;;;13.10;99.90;;;;;;5133574;27;20348;-75
2021/12/23 13:09:04;;;;;;;;;;;13.10;99.90;;;;;;5132828;27;19916;-73
2021/12/23 13:11:30;;;;;;;;;;;13.00;99.90;;;;;;5133785;27;19908;-75
2021/12/23 13:14:04;;;;;;;;;;;13.00;99.90;;;;;;5132582;27;19907;-75
2021/12/23 13:16:30;;;;;;;;;;;13.00;99.90;;;;;;5133545;27;19986;-74
2021/12/23 13:19:11;;;;;;;;;;;13.00;99.90;;;;;;5114303;27;20253;-74
2021/12/23 13:21:45;;;;;;;;;;;12.90;99.90;;;;;;5132941;27;19957;-74
2021/12/23 13:24:11;;;;;;;;;;;12.90;99.90;;;;;;5133502;27;19930;-74
2021/12/23 13:26:37;;;;;;;;;;;12.80;99.90;;;;;;5133167;27;19912;-74
2021/12/23 13:29:06;;;;;;;;;;;12.80;99.90;;;;;;5132524;27;20355;-75
2021/12/23 13:31:33;;;;;;;;;;;12.80;99.90;;;;;;5133170;27;19914;-74
2021/12/23 13:34:04;;;;;;;;;;;12.80;99.90;;;;;;5132442;27;19919;-74
2021/12/23 13:36:41;;;;;;;;;;;12.70;99.90;;;;;;5133659;27;19908;-74
2021/12/23 13:39:11;;;;;;;;;;;12.70;99.90;;;;;;5132492;27;19986;-74
2021/12/23 13:41:40;;;;;;;;;;;12.70;99.90;;;;;;5133467;27;19914;-73
2021/12/23 13:44:15;;;;;;;;;;;12.70;99.90;;;;;;5132465;27;19911;-74
2021/12/23 13:47:04;;;;;;;;;;;12.60;99.90;;;;;;5132546;28;19920;-73
2021/12/23 13:49:50;;;;;;;;;;;12.60;99.90;;;;;;5115963;27;19911;-74
2021/12/23 13:52:20;;;;;;;;;;;12.50;99.90;;;;;;5132298;28;20035;-74
2021/12/23 13:54:46;;;;;;;;;;;12.50;99.90;;;;;;5132739;28;19915;-74
2021/12/23 13:57:13;;;;;;;;;;;12.50;99.90;;;;;;5132630;28;19908;-73
2021/12/23 13:59:39;;;;;;;;;;;12.40;99.90;;;;;;5114512;28;20379;-73
2021/12/23 14:02:12;;;;;;;;;;;12.30;99.90;;;;;;5132072;28;19907;-74
2021/12/23 14:04:37;;;;;;;;;;;12.30;99.90;;;;;;5133312;28;19961;-74
2021/12/23 14:07:07;;;;;;;;;;;12.20;99.90;;;;;;5132130;28;19920;-73
2021/12/23 14:09:33;;;;;;;;;;;12.20;99.90;;;;;;5133068;28;20088;-74
2021/12/23 14:12:00;;;;;;;;;;;12.20;99.90;;;;;;5131931;28;19914;-74
2021/12/23 14:14:26;;;;;;;;;;;12.10;99.90;;;;;;5132760;28;20349;-74
2021/12/23 14:16:52;;;;;;;;;;;12.10;99.90;;;;;;5131446;28;20006;-74
2021/12/23 14:19:25;;;;;;;;;;;12.00;99.90;;;;;;5132780;28;19907;-74
2021/12/23 14:24:52;;;;;;;;;;;12.00;99.90;;;;;;5068242;28;19916;-74
2021/12/23 14:27:18;;;;;;;;;;;11.90;99.90;;;;;;5119143;28;19911;-74
2021/12/23 14:29:45;;;;;;;;;;;12.00;99.90;;;;;;5114430;28;19965;-74
2021/12/23 14:32:13;;;;;;;;;;;11.90;99.90;;;;;;5131737;27;19904;-74
2021/12/23 14:34:39;;;;;;;;;;;11.90;99.90;;;;;;5136204;27;19907;-73
2021/12/23 14:37:07;;;;;;;;;;;11.90;99.90;;;;;;5135761;27;19914;-73
2021/12/23 14:39:38;;;;;;;;;;;11.90;99.90;;;;;;5136179;27;19960;-73
2021/12/23 14:42:11;;;;;;;;;;;11.80;99.90;;;;;;5135203;27;19915;-74
2021/12/23 14:44:37;;;;;;;;;;;11.80;99.90;;;;;;5136156;27;19907;-73
2021/12/23 14:47:31;;;;;;;;;;;11.70;99.90;;;;;;5135450;27;19929;-73
2021/12/23 14:50:16;;;;;;;;;;;11.60;99.90;;;;;;5135384;27;20306;-73
2021/12/23 14:52:52;;;;;;;;;;;11.60;99.90;;;;;;5136368;27;20288;-73
2021/12/23 14:55:22;;;;;;;;;;;11.50;99.90;;;;;;5136007;27;19912;-73
2021/12/23 14:57:48;;;;;;;;;;;11.50;99.90;;;;;;5135690;27;19912;-73
2021/12/23 15:00:24;;;;;;;;;;;11.50;99.90;;;;;;5135010;27;19956;-74
2021/12/23 15:02:59;;;;;;;;;;;11.50;99.90;;;;;;5136007;27;19915;-76
2021/12/23 15:05:25;;;;;;;;;;;11.40;99.90;;;;;;5135933;27;19959;-75
2021/12/23 15:07:53;;;;;;;;;;;11.40;99.90;;;;;;5135575;27;19916;-77
2021/12/23 15:10:39;;;;;;;;;;;11.40;99.90;;;;;;5135562;27;19911;-73
2021/12/23 15:13:23;;;;;;;;;;;11.40;99.90;;;;;;5116813;27;19915;-75
2021/12/23 15:16:00;;;;;;;;;;;11.40;99.90;;;;;;5135809;27;20325;-75
2021/12/23 15:18:37;;;;;;;;;;;11.30;99.90;;;;;;5135841;27;19911;-74
2021/12/23 15:21:07;;;;;;;;;;;11.30;99.90;;;;;;5135023;27;19946;-74
2021/12/23 15:23:38;;;;;;;;;;;11.20;99.90;;;;;;5135707;27;19911;-74
2021/12/23 15:26:18;;;;;;;;;;;11.20;99.90;;;;;;5116465;27;19918;-74
2021/12/23 15:29:01;;;;;;;;;;;11.10;99.90;;;;;;5135275;27;19938;-74
2021/12/23 15:31:27;;;;;;;;;;;11.10;99.90;;;;;;5135465;27;19907;-74